Time;durP1;ratioP1;P1;durP2;ratioP2;P2;SDS_P1;SDS_P2;PMS_P1;PMS_P2;Temp;Humidity;BMP_temperature;BMP_pressure;BME280_temperature;BME280_humidity;BME280_pressure;Samples;Min_cycle;Max_cycle;Signal;HPM_P1;HPM_P2
2022/04/07 00:01:15;;;;;;;;;;;;;;;;;;4983532;28;1910;-79
2022/04/07 00:03:41;;;;;;;;;;;;;;;;;;4997055;28;1213;-79
2022/04/07 00:06:09;;;;;;;;;;;;;;;;;;4982166;28;1379;-79
2022/04/07 00:08:35;;;;;;;;;;;;;;;;;;4981769;28;1275;-77
2022/04/07 00:11:00;;;;;;;;;;;;;;;;;;4983237;28;1268;-77
2022/04/07 00:13:25;;;;;;;;;;;;;;;;;;4982307;28;1399;-78
2022/04/07 00:15:53;;;;;;;;;;;;;;;;;;4982175;28;1390;-79
2022/04/07 00:18:18;;;;;;;;;;;;;;;;;;4982939;28;1441;-79
2022/04/07 00:20:44;;;;;;;;;;;;;;;;;;4982517;28;1890;-79
2022/04/07 00:23:09;;;;;;;;;;;;;;;;;;4982854;28;1403;-79
2022/04/07 00:25:34;;;;;;;;;;;;;;;;;;4981301;28;1378;-78
2022/04/07 00:27:59;;;;;;;;;;;;;;;;;;4981840;28;1386;-78
2022/04/07 00:30:24;;;;;;;;;;;;;;;;;;4982951;28;1252;-79
2022/04/07 00:32:50;;;;;;;;;;;;;;;;;;4979818;28;1341;-80
2022/04/07 00:35:16;;;;;;;;;;;;;;;;;;4982495;28;1307;-80
2022/04/07 00:37:41;;;;;;;;;;;;;;;;;;4982369;28;1302;-80
2022/04/07 00:40:08;;;;;;;;;;;;;;;;;;4982639;28;1894;-80
2022/04/07 00:42:33;;;;;;;;;;;;;;;;;;4982823;28;1339;-80
2022/04/07 00:44:59;;;;;;;;;;;;;;;;;;4981515;28;1370;-79
2022/04/07 00:47:25;;;;;;;;;;;;;;;;;;4982585;28;1362;-79
2022/04/07 00:49:52;;;;;;;;;;;;;;;;;;4982754;28;1591;-79
2022/04/07 00:52:18;;;;;;;;;;;;;;;;;;4981982;28;1284;-79
2022/04/07 00:54:43;;;;;;;;;;;;;;;;;;4982007;28;1327;-81
2022/04/07 00:57:08;;;;;;;;;;;;;;;;;;4982115;28;1386;-80
2022/04/07 00:59:34;;;;;;;;;;;;;;;;;;4983510;28;1311;-80
2022/04/07 01:02:00;;;;;;;;;;;;;;;;;;4985597;28;1898;-80
2022/04/07 01:04:26;;;;;;;;;;;;;;;;;;4985757;28;1291;-80
2022/04/07 01:06:52;;;;;;;;;;;;;;;;;;4985171;28;1462;-79
2022/04/07 01:09:18;;;;;;;;;;;;;;;;;;4985867;28;1267;-80
2022/04/07 01:11:44;;;;;;;;;;;;;;;;;;4985872;28;1252;-80
2022/04/07 01:14:09;;;;;;;;;;;;;;;;;;4985310;28;1380;-81
2022/04/07 01:16:36;;;;;;;;;;;;;;;;;;4999987;28;1492;-81
2022/04/07 01:19:01;;;;;;;;;;;;;;;;;;4985485;28;1260;-80
2022/04/07 01:21:27;;;;;;;;;;;;;;;;;;4985232;28;1890;-79
2022/04/07 01:24:02;;;;;;;;;;;;;;;;;;4986493;28;1339;-80
2022/04/07 01:26:27;;;;;;;;;;;;;;;;;;4996350;28;1383;-79
2022/04/07 01:28:53;;;;;;;;;;;;;;;;;;5006377;28;1354;-79
2022/04/07 01:31:18;;;;;;;;;;;;;;;;;;4996136;28;1211;-79
2022/04/07 01:33:43;;;;;;;;;;;;;;;;;;4985134;28;1236;-81
2022/04/07 01:36:09;;;;;;;;;;;;;;;;;;4984560;28;1330;-81
2022/04/07 01:38:34;;;;;;;;;;;;;;;;;;4985276;28;1393;-79
2022/04/07 01:41:00;;;;;;;;;;;;;;;;;;4983700;28;1902;-80
2022/04/07 01:43:25;;;;;;;;;;;;;;;;;;4985514;28;1394;-81
2022/04/07 01:45:51;;;;;;;;;;;;;;;;;;4984793;28;1331;-81
2022/04/07 01:48:16;;;;;;;;;;;;;;;;;;4985331;28;1335;-80
2022/04/07 01:50:43;;;;;;;;;;;;;;;;;;4984801;28;1260;-80
2022/04/07 01:53:08;;;;;;;;;;;;;;;;;;4984734;28;1343;-80
2022/04/07 01:55:34;;;;;;;;;;;;;;;;;;4982245;28;1428;-80
2022/04/07 01:57:59;;;;;;;;;;;;;;;;;;4983542;28;1330;-80
2022/04/07 02:00:24;;;;;;;;;;;;;;;;;;4985302;28;1905;-81
2022/04/07 02:02:50;;;;;;;;;;;;;;;;;;4984282;28;1354;-82
2022/04/07 02:05:16;;;;;;;;;;;;;;;;;;4983141;28;1281;-78
2022/04/07 02:07:42;;;;;;;;;;;;;;;;;;4984195;28;1399;-79
2022/04/07 02:10:08;;;;;;;;;;;;;;;;;;4984346;28;1470;-79
2022/04/07 02:12:37;;;;;;;;;;;;;;;;;;4985346;28;1303;-80
2022/04/07 02:15:02;;;;;;;;;;;;;;;;;;4984204;28;1299;-80
2022/04/07 02:17:27;;;;;;;;;;;;;;;;;;4983508;28;1303;-81
2022/04/07 02:19:53;;;;;;;;;;;;;;;;;;4984984;28;1308;-80
2022/04/07 02:22:19;;;;;;;;;;;;;;;;;;4983811;28;1890;-83
2022/04/07 02:24:45;;;;;;;;;;;;;;;;;;4982250;28;1411;-77
2022/04/07 02:27:10;;;;;;;;;;;;;;;;;;4981144;28;1275;-76
2022/04/07 02:29:35;;;;;;;;;;;;;;;;;;4984155;28;1264;-80
2022/04/07 02:32:00;;;;;;;;;;;;;;;;;;4984958;28;1248;-80
2022/04/07 02:34:26;;;;;;;;;;;;;;;;;;4984938;28;1260;-81
2022/04/07 02:36:51;;;;;;;;;;;;;;;;;;4983567;28;1359;-79
2022/04/07 02:39:16;;;;;;;;;;;;;;;;;;4984059;28;1380;-77
2022/04/07 02:41:41;;;;;;;;;;;;;;;;;;4983510;28;1959;-78
2022/04/07 02:44:06;;;;;;;;;;;;;;;;;;4983879;28;1319;-79
2022/04/07 02:46:32;;;;;;;;;;;;;;;;;;4998452;28;1383;-78
2022/04/07 02:48:57;;;;;;;;;;;;;;;;;;4984082;28;1249;-78
2022/04/07 02:51:23;;;;;;;;;;;;;;;;;;4984234;28;1331;-79
2022/04/07 02:53:49;;;;;;;;;;;;;;;;;;4983563;28;1314;-77
2022/04/07 02:56:14;;;;;;;;;;;;;;;;;;4982193;28;1312;-83
2022/04/07 02:58:39;;;;;;;;;;;;;;;;;;4982129;28;1426;-80
2022/04/07 03:01:04;;;;;;;;;;;;;;;;;;4983327;28;1894;-81
2022/04/07 03:03:29;;;;;;;;;;;;;;;;;;4997205;28;1342;-81
2022/04/07 03:05:55;;;;;;;;;;;;;;;;;;4982665;28;1454;-81
2022/04/07 03:08:21;;;;;;;;;;;;;;;;;;4983361;28;1239;-81
2022/04/07 03:10:46;;;;;;;;;;;;;;;;;;4983390;28;1327;-82
2022/04/07 03:13:11;;;;;;;;;;;;;;;;;;4984545;28;1315;-82
2022/04/07 03:15:36;;;;;;;;;;;;;;;;;;4982755;28;1314;-79
2022/04/07 03:18:01;;;;;;;;;;;;;;;;;;4983553;28;1381;-78
2022/04/07 03:20:27;;;;;;;;;;;;;;;;;;4981664;28;1894;-79
2022/04/07 03:22:52;;;;;;;;;;;;;;;;;;4982645;28;1395;-78
2022/04/07 03:25:17;;;;;;;;;;;;;;;;;;4981430;28;1315;-80
2022/04/07 03:27:42;;;;;;;;;;;;;;;;;;4982913;28;1324;-81
2022/04/07 03:30:08;;;;;;;;;;;;;;;;;;4982793;28;1268;-82
2022/04/07 03:32:33;;;;;;;;;;;;;;;;;;4983392;28;1604;-83
2022/04/07 03:34:58;;;;;;;;;;;;;;;;;;4983516;28;1140;-83
2022/04/07 03:37:23;;;;;;;;;;;;;;;;;;4983927;28;1353;-81
2022/04/07 03:39:49;;;;;;;;;;;;;;;;;;4999058;28;1490;-81
2022/04/07 03:42:15;;;;;;;;;;;;;;;;;;4983309;28;1961;-80
2022/04/07 03:44:40;;;;;;;;;;;;;;;;;;4983796;28;1274;-81
2022/04/07 03:47:05;;;;;;;;;;;;;;;;;;4997577;28;1330;-82
2022/04/07 03:49:30;;;;;;;;;;;;;;;;;;4983597;28;1545;-82
2022/04/07 03:51:56;;;;;;;;;;;;;;;;;;4983408;28;1252;-82
2022/04/07 03:54:21;;;;;;;;;;;;;;;;;;4983074;28;1478;-82
2022/04/07 03:56:46;;;;;;;;;;;;;;;;;;4982132;28;1370;-82
2022/04/07 03:59:12;;;;;;;;;;;;;;;;;;4983721;28;1286;-82
2022/04/07 04:01:39;;;;;;;;;;;;;;;;;;4981836;28;1965;-82
2022/04/07 04:04:04;;;;;;;;;;;;;;;;;;4983874;28;1243;-82
2022/04/07 04:06:30;;;;;;;;;;;;;;;;;;4980358;28;1352;-81
2022/04/07 04:08:55;;;;;;;;;;;;;;;;;;4983518;28;1264;-78
2022/04/07 04:11:20;;;;;;;;;;;;;;;;;;4983642;28;1250;-80
2022/04/07 04:13:46;;;;;;;;;;;;;;;;;;4998582;28;1543;-80
2022/04/07 04:16:13;;;;;;;;;;;;;;;;;;4982799;28;1375;-80
2022/04/07 04:18:38;;;;;;;;;;;;;;;;;;4983591;28;1287;-79
2022/04/07 04:21:03;;;;;;;;;;;;;;;;;;4982494;28;1898;-79
2022/04/07 04:23:28;;;;;;;;;;;;;;;;;;4983620;28;1453;-79
2022/04/07 04:25:54;;;;;;;;;;;;;;;;;;4982869;28;1366;-80
2022/04/07 04:28:19;;;;;;;;;;;;;;;;;;4982563;28;1370;-81
2022/04/07 04:30:44;;;;;;;;;;;;;;;;;;4981432;28;1307;-80
2022/04/07 04:33:10;;;;;;;;;;;;;;;;;;4980679;28;1290;-79
2022/04/07 04:35:35;;;;;;;;;;;;;;;;;;4980822;28;1304;-81
2022/04/07 04:38:00;;;;;;;;;;;;;;;;;;4982177;28;1272;-81
2022/04/07 04:40:26;;;;;;;;;;;;;;;;;;4983227;28;1890;-81
2022/04/07 04:42:51;;;;;;;;;;;;;;;;;;4982802;28;1324;-81
2022/04/07 04:45:16;;;;;;;;;;;;;;;;;;4979928;28;1307;-80
2022/04/07 04:47:41;;;;;;;;;;;;;;;;;;4984170;28;1334;-86
2022/04/07 04:50:07;;;;;;;;;;;;;;;;;;4983049;28;1263;-83
2022/04/07 04:52:33;;;;;;;;;;;;;;;;;;4982181;28;1235;-83
2022/04/07 04:54:58;;;;;;;;;;;;;;;;;;4980542;28;1271;-80
2022/04/07 04:57:23;;;;;;;;;;;;;;;;;;4982781;28;1276;-81
2022/04/07 04:59:48;;;;;;;;;;;;;;;;;;4981827;28;1475;-81
2022/04/07 05:02:13;;;;;;;;;;;;;;;;;;4981949;28;1898;-83
2022/04/07 05:04:39;;;;;;;;;;;;;;;;;;4982581;28;1438;-81
2022/04/07 05:07:04;;;;;;;;;;;;;;;;;;4981278;28;1379;-81
2022/04/07 05:09:29;;;;;;;;;;;;;;;;;;4983571;28;1366;-82
2022/04/07 05:11:54;;;;;;;;;;;;;;;;;;4983056;28;1369;-83
2022/04/07 05:14:20;;;;;;;;;;;;;;;;;;4982366;28;1263;-82
2022/04/07 05:16:45;;;;;;;;;;;;;;;;;;4997473;28;1291;-84
2022/04/07 05:19:10;;;;;;;;;;;;;;;;;;4985395;28;1335;-86
2022/04/07 05:21:35;;;;;;;;;;;;;;;;;;4985427;28;1894;-84
2022/04/07 05:24:00;;;;;;;;;;;;;;;;;;5003872;28;1220;-80
2022/04/07 05:26:26;;;;;;;;;;;;;;;;;;5003295;28;1299;-81
2022/04/07 05:28:51;;;;;;;;;;;;;;;;;;4983953;28;1271;-81
2022/04/07 05:31:16;;;;;;;;;;;;;;;;;;4990675;28;1283;-84
2022/04/07 05:33:41;;;;;;;;;;;;;;;;;;4992363;28;1193;-85
2022/04/07 05:36:06;;;;;;;;;;;;;;;;;;4984330;28;1395;-85
2022/04/07 05:38:32;;;;;;;;;;;;;;;;;;4983474;28;1279;-83
2022/04/07 05:40:57;;;;;;;;;;;;;;;;;;4982112;28;1910;-86
2022/04/07 05:43:22;;;;;;;;;;;;;;;;;;4983893;28;1291;-87
2022/04/07 05:45:50;;;;;;;;;;;;;;;;;;4986426;28;1259;-85
2022/04/07 05:48:15;;;;;;;;;;;;;;;;;;4985890;28;1276;-85
2022/04/07 05:50:40;;;;;;;;;;;;;;;;;;4985435;28;1224;-81
2022/04/07 05:53:06;;;;;;;;;;;;;;;;;;4984472;28;1273;-80
2022/04/07 05:55:32;;;;;;;;;;;;;;;;;;4984167;28;1304;-81
2022/04/07 05:58:00;;;;;;;;;;;;;;;;;;4984777;28;1339;-84
2022/04/07 06:00:25;;;;;;;;;;;;;;;;;;4985728;28;1910;-81
2022/04/07 06:02:50;;;;;;;;;;;;;;;;;;4982252;28;1345;-81
2022/04/07 06:07:56;;;;;;;;;;;;;;;;;;5623839;22;1998;-81
2022/04/07 06:10:21;;;;;;;;;;;;;;;;;;5025406;28;975;-82
2022/04/07 06:12:47;;;;;;;;;;;;;;;;;;5018683;28;1579;-86
2022/04/07 06:15:12;;;;;;;;;;;;;;;;;;5022760;28;1458;-67
2022/04/07 06:17:42;;;;;;;;;;;;;;;;;;5021107;28;1921;-67
2022/04/07 06:20:08;;;;;;;;;;;;;;;;;;5020995;28;1693;-67
2022/04/07 06:22:34;;;;;;;;;;;;;;;;;;5021889;28;1973;-68
2022/04/07 06:24:59;;;;;;;;;;;;;;;;;;5021938;28;1328;-68
2022/04/07 06:27:32;;;;;;;;;;;;;;;;;;5020723;28;1375;-67
2022/04/07 06:29:57;;;;;;;;;;;;;;;;;;5021392;28;1467;-68
2022/04/07 06:32:23;;;;;;;;;;;;;;;;;;5021335;28;1312;-68
2022/04/07 06:34:48;;;;;;;;;;;;;;;;;;5021466;28;1504;-67
2022/04/07 06:37:13;;;;;;;;;;;;;;;;;;5021946;28;1371;-68
2022/04/07 06:39:38;;;;;;;;;;;;;;;;;;5022062;28;1343;-67
2022/04/07 06:42:04;;;;;;;;;;;;;;;;;;5021507;28;1969;-68
2022/04/07 06:44:29;;;;;;;;;;;;;;;;;;5021676;28;1400;-68
2022/04/07 06:46:54;;;;;;;;;;;;;;;;;;5021813;28;1343;-70
2022/04/07 06:49:19;;;;;;;;;;;;;;;;;;5022002;28;1252;-68
2022/04/07 06:51:44;;;;;;;;;;;;;;;;;;5021642;28;1355;-68
2022/04/07 06:54:09;;;;;;;;;;;;;;;;;;5021176;28;1359;-69
2022/04/07 06:56:35;;;;;;;;;;;;;;;;;;5020101;28;1285;-68
2022/04/07 06:59:01;;;;;;;;;;;;;;;;;;5021971;28;1410;-67
2022/04/07 07:01:26;;;;;;;;;;;;;;;;;;5021413;28;1967;-67
2022/04/07 07:03:51;;;;;;;;;;;;;;;;;;5022101;28;1410;-68
2022/04/07 07:06:16;;;;;;;;;;;;;;;;;;5024746;28;1508;-68
2022/04/07 07:08:42;;;;;;;;;;;;;;;;;;5025050;28;1323;-68
2022/04/07 07:11:08;;;;;;;;;;;;;;;;;;5023003;28;1323;-70
2022/04/07 07:13:36;;;;;;;;;;;;;;;;;;5021290;28;1355;-69
2022/04/07 07:16:01;;;;;;;;;;;;;;;;;;5022418;28;1164;-69
2022/04/07 07:18:26;;;;;;;;;;;;;;;;;;5022334;28;1396;-69
2022/04/07 07:20:51;;;;;;;;;;;;;;;;;;5022117;28;1971;-68
2022/04/07 07:23:18;;;;;;;;;;;;;;;;;;5021276;28;1535;-70
2022/04/07 07:25:44;;;;;;;;;;;;;;;;;;5021686;28;1502;-69
2022/04/07 07:28:09;;;;;;;;;;;;;;;;;;5025157;28;1346;-70
2022/04/07 07:30:34;;;;;;;;;;;;;;;;;;5025171;28;1314;-68
2022/04/07 07:33:00;;;;;;;;;;;;;;;;;;5025761;28;1160;-68
2022/04/07 07:35:25;;;;;;;;;;;;;;;;;;5021586;28;1500;-70
2022/04/07 07:37:52;;;;;;;;;;;;;;;;;;5023763;28;1372;-68
2022/04/07 07:40:17;;;;;;;;;;;;;;;;;;5022848;28;1959;-68
2022/04/07 07:42:42;;;;;;;;;;;;;;;;;;5024292;28;1314;-68
2022/04/07 07:45:08;;;;;;;;;;;;;;;;;;5022499;28;1464;-66
2022/04/07 07:47:34;;;;;;;;;;;;;;;;;;5020585;28;1408;-69
2022/04/07 07:49:59;;;;;;;;;;;;;;;;;;5020656;28;1373;-70
2022/04/07 07:52:24;;;;;;;;;;;;;;;;;;5021389;28;1505;-71
2022/04/07 07:54:50;;;;;;;;;;;;;;;;;;5013656;28;1429;-71
2022/04/07 07:57:15;;;;;;;;;;;;;;;;;;5021284;28;1271;-72
2022/04/07 07:59:40;;;;;;;;;;;;;;;;;;5021393;28;1508;-71
2022/04/07 08:02:06;;;;;;;;;;;;;;;;;;5021121;28;1956;-69
2022/04/07 08:04:31;;;;;;;;;;;;;;;;;;5021302;28;1493;-69
2022/04/07 08:06:56;;;;;;;;;;;;;;;;;;5020814;28;1267;-69
2022/04/07 08:09:22;;;;;;;;;;;;;;;;;;5021173;28;1493;-72
2022/04/07 08:11:47;;;;;;;;;;;;;;;;;;5021218;28;830;-69
2022/04/07 08:14:12;;;;;;;;;;;;;;;;;;5021191;28;905;-69
2022/04/07 08:16:37;;;;;;;;;;;;;;;;;;5020832;28;1556;-69
2022/04/07 08:19:03;;;;;;;;;;;;;;;;;;5021265;28;1224;-69
2022/04/07 08:21:28;;;;;;;;;;;;;;;;;;5020974;28;1899;-68
2022/04/07 08:23:53;;;;;;;;;;;;;;;;;;5021206;28;964;-68
2022/04/07 08:26:19;;;;;;;;;;;;;;;;;;5020855;28;1006;-69
2022/04/07 08:28:44;;;;;;;;;;;;;;;;;;5020777;28;1509;-70
2022/04/07 08:31:09;;;;;;;;;;;;;;;;;;5021213;28;940;-70
2022/04/07 08:33:34;;;;;;;;;;;;;;;;;;5020993;28;965;-70
2022/04/07 08:36:00;;;;;;;;;;;;;;;;;;5020970;28;838;-69
2022/04/07 08:38:25;;;;;;;;;;;;;;;;;;5021047;28;1208;-70
2022/04/07 08:40:51;;;;;;;;;;;;;;;;;;5020855;28;1954;-70
2022/04/07 08:43:17;;;;;;;;;;;;;;;;;;5020902;28;791;-70
2022/04/07 08:45:43;;;;;;;;;;;;;;;;;;5020847;28;929;-70
2022/04/07 08:48:10;;;;;;;;;;;;;;;;;;5020702;28;1169;-70
2022/04/07 08:50:35;;;;;;;;;;;;;;;;;;5020863;28;857;-69
2022/04/07 08:53:01;;;;;;;;;;;;;;;;;;5020924;28;1040;-70
2022/04/07 08:55:26;;;;;;;;;;;;;;;;;;5020498;28;1529;-70
2022/04/07 08:57:51;;;;;;;;;;;;;;;;;;5020859;28;1258;-69
2022/04/07 09:00:17;;;;;;;;;;;;;;;;;;5020574;28;1497;-70
2022/04/07 09:02:43;;;;;;;;;;;;;;;;;;5020539;28;1874;-70
2022/04/07 09:05:10;;;;;;;;;;;;;;;;;;5020526;28;881;-69
2022/04/07 09:07:35;;;;;;;;;;;;;;;;;;5020767;28;1184;-70
2022/04/07 09:10:02;;;;;;;;;;;;;;;;;;5020444;28;810;-69
2022/04/07 09:12:27;;;;;;;;;;;;;;;;;;5020588;28;795;-70
2022/04/07 09:14:59;;;;;;;;;;;;;;;;;;5020379;28;992;-69
2022/04/07 09:17:26;;;;;;;;;;;;;;;;;;5020434;28;1264;-70
2022/04/07 09:19:51;;;;;;;;;;;;;;;;;;5022653;28;843;-69
2022/04/07 09:22:17;;;;;;;;;;;;;;;;;;5023551;28;1901;-70
2022/04/07 09:24:42;;;;;;;;;;;;;;;;;;5024251;28;802;-69
2022/04/07 09:27:08;;;;;;;;;;;;;;;;;;5023387;28;1177;-70
2022/04/07 09:29:44;;;;;;;;;;;;;;;;;;5023961;28;889;-71
2022/04/07 09:32:19;;;;;;;;;;;;;;;;;;5023951;28;831;-68
2022/04/07 09:34:45;;;;;;;;;;;;;;;;;;5023477;28;1477;-69
2022/04/07 09:37:11;;;;;;;;;;;;;;;;;;5023097;28;1276;-69
2022/04/07 09:39:39;;;;;;;;;;;;;;;;;;5023678;28;854;-69
2022/04/07 09:42:37;;;;;;;;;;;;;;;;;;5023556;28;1957;-70
2022/04/07 09:45:03;;;;;;;;;;;;;;;;;;4984348;28;1558;-69
2022/04/07 09:47:39;;;;;;;;;;;;;;;;;;5023080;28;1176;-69
2022/04/07 09:50:08;;;;;;;;;;;;;;;;;;5023324;28;1557;-69
2022/04/07 09:52:37;;;;;;;;;;;;;;;;;;5023599;28;810;-70
2022/04/07 09:55:06;;;;;;;;;;;;;;;;;;5023461;28;901;-69
2022/04/07 09:57:32;;;;;;;;;;;;;;;;;;5023295;28;1474;-69
2022/04/07 09:59:57;;;;;;;;;;;;;;;;;;5023273;28;969;-69
2022/04/07 10:02:23;;;;;;;;;;;;;;;;;;5023387;28;1894;-70
2022/04/07 10:04:48;;;;;;;;;;;;;;;;;;5023130;28;983;-70
2022/04/07 10:07:14;;;;;;;;;;;;;;;;;;5023199;28;1172;-70
2022/04/07 10:09:46;;;;;;;;;;;;;;;;;;5023174;28;917;-70
2022/04/07 10:12:11;;;;;;;;;;;;;;;;;;5023067;28;1536;-70
2022/04/07 10:14:37;;;;;;;;;;;;;;;;;;5022990;28;887;-70
2022/04/07 10:17:02;;;;;;;;;;;;;;;;;;5022824;28;1177;-70
2022/04/07 10:19:30;;;;;;;;;;;;;;;;;;5023156;28;925;-70
2022/04/07 10:22:02;;;;;;;;;;;;;;;;;;5022892;28;1902;-70
2022/04/07 10:24:29;;;;;;;;;;;;;;;;;;5022937;28;1524;-70
2022/04/07 10:26:55;;;;;;;;;;;;;;;;;;5022311;28;1418;-70
2022/04/07 10:29:23;;;;;;;;;;;;;;;;;;5022748;28;1409;-70
2022/04/07 10:32:09;;;;;;;;;;;;;;;;;;5021462;28;1471;-70
2022/04/07 10:34:34;;;;;;;;;;;;;;;;;;5022998;28;1501;-70
2022/04/07 10:37:03;;;;;;;;;;;;;;;;;;5022546;28;1181;-70
2022/04/07 10:39:32;;;;;;;;;;;;;;;;;;5022750;28;1449;-70
2022/04/07 10:41:57;;;;;;;;;;;;;;;;;;5022562;28;1894;-70
2022/04/07 10:44:24;;;;;;;;;;;;;;;;;;5022676;28;882;-70
2022/04/07 10:47:00;;;;;;;;;;;;;;;;;;5021098;28;1471;-69
2022/04/07 10:49:25;;;;;;;;;;;;;;;;;;5022538;28;948;-69
2022/04/07 10:51:51;;;;;;;;;;;;;;;;;;5022693;28;1004;-69
2022/04/07 10:54:16;;;;;;;;;;;;;;;;;;5022519;28;877;-69
2022/04/07 10:56:49;;;;;;;;;;;;;;;;;;5022188;28;1457;-70
2022/04/07 10:59:17;;;;;;;;;;;;;;;;;;5022333;28;838;-70
2022/04/07 11:01:42;;;;;;;;;;;;;;;;;;5022370;28;1953;-70
2022/04/07 11:04:20;;;;;;;;;;;;;;;;;;5022425;28;1486;-70
2022/04/07 11:07:03;;;;;;;;;;;;;;;;;;5021898;28;1263;-69
2022/04/07 11:09:47;;;;;;;;;;;;;;;;;;5022062;28;838;-69
2022/04/07 11:12:28;;;;;;;;;;;;;;;;;;5004519;28;1317;-70
2022/04/07 11:15:14;;;;;;;;;;;;;;;;;;5022196;28;988;-70
2022/04/07 11:17:42;;;;;;;;;;;;;;;;;;5021577;28;1345;-70
2022/04/07 11:20:20;;;;;;;;;;;;;;;;;;5021870;28;838;-70
2022/04/07 11:22:52;;;;;;;;;;;;;;;;;;5022000;28;1946;-70
2022/04/07 11:25:20;;;;;;;;;;;;;;;;;;5021561;28;1477;-70
2022/04/07 11:28:01;;;;;;;;;;;;;;;;;;5021737;28;1181;-70
2022/04/07 11:30:34;;;;;;;;;;;;;;;;;;5004072;28;1541;-70
2022/04/07 11:33:32;;;;;;;;;;;;;;;;;;5022199;28;894;-70
2022/04/07 11:36:00;;;;;;;;;;;;;;;;;;4966979;28;1418;-70
2022/04/07 11:38:31;;;;;;;;;;;;;;;;;;5021692;28;1196;-71
2022/04/07 11:41:17;;;;;;;;;;;;;;;;;;5021631;28;1898;-71
2022/04/07 11:43:49;;;;;;;;;;;;;;;;;;5021235;28;1323;-71
2022/04/07 11:46:15;;;;;;;;;;;;;;;;;;5021283;28;904;-71
2022/04/07 11:48:41;;;;;;;;;;;;;;;;;;5021638;28;1184;-70
2022/04/07 11:51:13;;;;;;;;;;;;;;;;;;5021694;28;834;-71
2022/04/07 11:53:39;;;;;;;;;;;;;;;;;;5021470;28;1482;-70
2022/04/07 11:56:17;;;;;;;;;;;;;;;;;;5021612;28;814;-71
2022/04/07 11:58:43;;;;;;;;;;;;;;;;;;5021167;28;1169;-71
2022/04/07 12:01:11;;;;;;;;;;;;;;;;;;5021459;28;1893;-71
2022/04/07 12:03:40;;;;;;;;;;;;;;;;;;5003890;28;886;-71
2022/04/07 12:06:05;;;;;;;;;;;;;;;;;;5021252;28;1500;-71
2022/04/07 12:08:30;;;;;;;;;;;;;;;;;;5021351;28;1264;-71
2022/04/07 12:10:56;;;;;;;;;;;;;;;;;;5021283;28;1003;-71
2022/04/07 12:13:21;;;;;;;;;;;;;;;;;;5021085;28;1512;-71
2022/04/07 12:15:46;;;;;;;;;;;;;;;;;;5021348;28;1023;-71
2022/04/07 12:18:11;;;;;;;;;;;;;;;;;;5020944;28;1582;-71
2022/04/07 12:20:37;;;;;;;;;;;;;;;;;;5021101;28;1969;-71
2022/04/07 12:23:03;;;;;;;;;;;;;;;;;;5021355;28;1047;-71
2022/04/07 12:25:29;;;;;;;;;;;;;;;;;;5021066;28;794;-71
2022/04/07 12:28:05;;;;;;;;;;;;;;;;;;5021013;28;1180;-71
2022/04/07 12:30:43;;;;;;;;;;;;;;;;;;5021117;28;885;-71
2022/04/07 12:33:09;;;;;;;;;;;;;;;;;;5021300;28;823;-71
2022/04/07 12:35:44;;;;;;;;;;;;;;;;;;5020839;28;877;-69
2022/04/07 12:38:12;;;;;;;;;;;;;;;;;;5020853;28;1185;-69
2022/04/07 12:40:38;;;;;;;;;;;;;;;;;;5020992;28;1957;-69
2022/04/07 12:43:03;;;;;;;;;;;;;;;;;;5020985;28;830;-70
2022/04/07 12:45:30;;;;;;;;;;;;;;;;;;5020901;28;942;-70
2022/04/07 12:48:04;;;;;;;;;;;;;;;;;;5003126;28;1483;-70
2022/04/07 12:50:29;;;;;;;;;;;;;;;;;;5021036;28;1044;-70
2022/04/07 12:52:55;;;;;;;;;;;;;;;;;;5021517;28;822;-70
2022/04/07 12:55:30;;;;;;;;;;;;;;;;;;5024423;28;873;-71
2022/04/07 12:57:56;;;;;;;;;;;;;;;;;;5024236;28;1284;-71
2022/04/07 13:00:21;;;;;;;;;;;;;;;;;;5024249;28;857;-71
2022/04/07 13:02:49;;;;;;;;;;;;;;;;;;5023854;28;1902;-71
2022/04/07 13:05:21;;;;;;;;;;;;;;;;;;5023951;28;803;-70
2022/04/07 13:07:46;;;;;;;;;;;;;;;;;;5023474;28;1477;-70
2022/04/07 13:10:12;;;;;;;;;;;;;;;;;;5006207;28;1408;-71
2022/04/07 13:12:38;;;;;;;;;;;;;;;;;;5023932;28;1553;-70
2022/04/07 13:15:03;;;;;;;;;;;;;;;;;;5024051;28;881;-71
2022/04/07 13:17:29;;;;;;;;;;;;;;;;;;5023901;28;1267;-70
2022/04/07 13:19:54;;;;;;;;;;;;;;;;;;5024001;28;819;-70
2022/04/07 13:22:21;;;;;;;;;;;;;;;;;;5024007;28;1902;-70
2022/04/07 13:24:46;;;;;;;;;;;;;;;;;;5023852;28;854;-70
2022/04/07 13:27:11;;;;;;;;;;;;;;;;;;5023710;28;1169;-71
2022/04/07 13:29:36;;;;;;;;;;;;;;;;;;5023748;28;898;-71
2022/04/07 13:32:02;;;;;;;;;;;;;;;;;;5023685;28;1449;-71
2022/04/07 13:34:27;;;;;;;;;;;;;;;;;;5023233;28;1417;-71
2022/04/07 13:36:52;;;;;;;;;;;;;;;;;;5023434;28;1193;-70
2022/04/07 13:39:17;;;;;;;;;;;;;;;;;;5023608;28;897;-70
2022/04/07 13:41:43;;;;;;;;;;;;;;;;;;5023687;28;1894;-70
2022/04/07 13:44:08;;;;;;;;;;;;;;;;;;5023666;28;761;-70
2022/04/07 13:46:34;;;;;;;;;;;;;;;;;;5023627;28;802;-70
2022/04/07 13:49:00;;;;;;;;;;;;;;;;;;5023730;28;1239;-70
2022/04/07 13:51:25;;;;;;;;;;;;;;;;;;5023065;28;1434;-70
2022/04/07 13:53:50;;;;;;;;;;;;;;;;;;5023664;28;837;-70
2022/04/07 13:56:15;;;;;;;;;;;;;;;;;;5023212;28;1407;-70
2022/04/07 13:58:40;;;;;;;;;;;;;;;;;;5023196;28;1185;-69
2022/04/07 14:01:06;;;;;;;;;;;;;;;;;;5023143;28;1890;-70
2022/04/07 14:03:31;;;;;;;;;;;;;;;;;;5023229;28;854;-71
2022/04/07 14:06:00;;;;;;;;;;;;;;;;;;5022648;28;869;-70
2022/04/07 14:08:25;;;;;;;;;;;;;;;;;;5023173;28;1247;-71
2022/04/07 14:10:51;;;;;;;;;;;;;;;;;;5023307;28;1008;-70
2022/04/07 14:13:18;;;;;;;;;;;;;;;;;;5023334;28;886;-71
2022/04/07 14:15:45;;;;;;;;;;;;;;;;;;5023170;28;866;-71
2022/04/07 14:18:10;;;;;;;;;;;;;;;;;;5023133;28;1275;-71
2022/04/07 14:20:39;;;;;;;;;;;;;;;;;;5005295;28;1902;-71
2022/04/07 14:23:05;;;;;;;;;;;;;;;;;;5023126;28;925;-71
2022/04/07 14:25:30;;;;;;;;;;;;;;;;;;5023299;28;1000;-71
2022/04/07 14:27:55;;;;;;;;;;;;;;;;;;5023047;28;1279;-71
2022/04/07 14:30:20;;;;;;;;;;;;;;;;;;5023031;28;953;-71
2022/04/07 14:32:46;;;;;;;;;;;;;;;;;;5023189;28;1044;-71
2022/04/07 14:35:15;;;;;;;;;;;;;;;;;;5022923;28;842;-71
2022/04/07 14:37:40;;;;;;;;;;;;;;;;;;5022954;28;1184;-71
2022/04/07 14:40:06;;;;;;;;;;;;;;;;;;5023040;28;794;-71
2022/04/07 14:42:31;;;;;;;;;;;;;;;;;;5022805;28;1890;-71
2022/04/07 14:44:56;;;;;;;;;;;;;;;;;;5023020;28;962;-71
2022/04/07 14:47:21;;;;;;;;;;;;;;;;;;5022567;28;1525;-71
2022/04/07 14:49:47;;;;;;;;;;;;;;;;;;5022972;28;819;-71
2022/04/07 14:52:13;;;;;;;;;;;;;;;;;;5022893;28;756;-71
2022/04/07 14:54:38;;;;;;;;;;;;;;;;;;5005505;28;1264;-71
2022/04/07 14:57:03;;;;;;;;;;;;;;;;;;5022975;28;1200;-71
2022/04/07 14:59:30;;;;;;;;;;;;;;;;;;5023238;28;873;-71
2022/04/07 15:01:55;;;;;;;;;;;;;;;;;;5022704;28;1894;-71
2022/04/07 15:04:20;;;;;;;;;;;;;;;;;;5022872;28;1048;-71
2022/04/07 15:06:45;;;;;;;;;;;;;;;;;;5022332;28;1261;-71
2022/04/07 15:09:11;;;;;;;;;;;;;;;;;;5022742;28;968;-71
2022/04/07 15:11:36;;;;;;;;;;;;;;;;;;5022707;28;831;-71
2022/04/07 15:14:01;;;;;;;;;;;;;;;;;;5022533;28;850;-70
2022/04/07 15:16:26;;;;;;;;;;;;;;;;;;5021079;28;1450;-70
2022/04/07 15:18:51;;;;;;;;;;;;;;;;;;5022225;28;1287;-70
2022/04/07 15:21:17;;;;;;;;;;;;;;;;;;5022481;28;1894;-70
2022/04/07 15:23:42;;;;;;;;;;;;;;;;;;5021996;28;1443;-71
2022/04/07 15:26:07;;;;;;;;;;;;;;;;;;5022203;28;799;-71
2022/04/07 15:28:32;;;;;;;;;;;;;;;;;;5004786;28;1185;-71
2022/04/07 15:30:57;;;;;;;;;;;;;;;;;;5028159;28;794;-71
2022/04/07 15:33:23;;;;;;;;;;;;;;;;;;5030035;28;1651;-71
2022/04/07 15:35:48;;;;;;;;;;;;;;;;;;5024423;28;1040;-71
2022/04/07 15:38:19;;;;;;;;;;;;;;;;;;5056155;28;1464;-71
2022/04/07 15:40:44;;;;;;;;;;;;;;;;;;5057996;28;885;-71
2022/04/07 15:43:10;;;;;;;;;;;;;;;;;;5057626;28;838;-71
2022/04/07 15:45:36;;;;;;;;;;;;;;;;;;5057663;28;872;-71
2022/04/07 15:48:01;;;;;;;;;;;;;;;;;;5057356;28;1196;-70
2022/04/07 15:50:26;;;;;;;;;;;;;;;;;;5053882;28;1495;-70
2022/04/07 15:52:51;;;;;;;;;;;;;;;;;;5037539;28;820;-70
2022/04/07 15:55:17;;;;;;;;;;;;;;;;;;5037447;28;921;-70
2022/04/07 15:57:44;;;;;;;;;;;;;;;;;;5037522;28;1969;-70
2022/04/07 16:00:09;;;;;;;;;;;;;;;;;;5039187;28;826;-69
2022/04/07 16:02:35;;;;;;;;;;;;;;;;;;5038259;28;1455;-70
2022/04/07 16:05:00;;;;;;;;;;;;;;;;;;5057314;28;897;-70
2022/04/07 16:07:27;;;;;;;;;;;;;;;;;;5057174;28;1281;-71
2022/04/07 16:09:53;;;;;;;;;;;;;;;;;;5039733;28;1403;-70
2022/04/07 16:12:20;;;;;;;;;;;;;;;;;;5037201;28;810;-70
2022/04/07 16:14:47;;;;;;;;;;;;;;;;;;5037218;28;815;-70
2022/04/07 16:17:12;;;;;;;;;;;;;;;;;;5036740;28;1894;-70
2022/04/07 16:19:37;;;;;;;;;;;;;;;;;;5037203;28;1035;-70
2022/04/07 16:22:03;;;;;;;;;;;;;;;;;;5037031;28;1475;-70
2022/04/07 16:24:29;;;;;;;;;;;;;;;;;;5037062;28;985;-72
2022/04/07 16:26:54;;;;;;;;;;;;;;;;;;5036740;28;1531;-71
2022/04/07 16:29:20;;;;;;;;;;;;;;;;;;5036975;28;794;-71
2022/04/07 16:31:45;;;;;;;;;;;;;;;;;;5036989;28;830;-71
2022/04/07 16:34:15;;;;;;;;;;;;;;;;;;5036903;28;854;-71
2022/04/07 16:36:41;;;;;;;;;;;;;;;;;;5044579;28;1889;-71
2022/04/07 16:39:06;;;;;;;;;;;;;;;;;;5056641;28;818;-71
2022/04/07 16:41:31;;;;;;;;;;;;;;;;;;5056806;28;889;-71
2022/04/07 16:43:56;;;;;;;;;;;;;;;;;;5060602;28;1153;-71
2022/04/07 16:46:22;;;;;;;;;;;;;;;;;;5056560;28;1535;-71
2022/04/07 16:48:47;;;;;;;;;;;;;;;;;;5048410;28;1271;-71
2022/04/07 16:51:12;;;;;;;;;;;;;;;;;;5043356;28;874;-71
2022/04/07 16:53:37;;;;;;;;;;;;;;;;;;5043159;28;830;-70
2022/04/07 16:56:03;;;;;;;;;;;;;;;;;;5043139;28;1902;-70
2022/04/07 16:58:29;;;;;;;;;;;;;;;;;;5043167;28;1204;-71
2022/04/07 17:00:54;;;;;;;;;;;;;;;;;;5042967;28;802;-71
2022/04/07 17:03:19;;;;;;;;;;;;;;;;;;5043317;28;865;-71